KLIMATOLOGI DAS LIMBOTO HEPUHULAWA

Tanggal Temperature (oC) RH (%) PAN 'A' Kecepatan Angin (KM/hari) Sinar Matahari (%) Hujan Biasa (mm)
Max Min Rata-rata Temp Air Dlm Tangki (oC) Penguapan (mm)
2022-01-31 36 22.5 29.3 94 31 0 31.9 72.2 0
2022-01-30 35 22.5 28.8 93 31 5 25.9 65.6 0
2022-01-29 32.5 23.5 28 91 29.5 3 16.8 23.2 0
2022-01-28 33.5 23.5 28.5 92 30.5 2.2 20.2 23.2 1.2
2022-01-27 31 23.5 27.3 96 32.5 5 21.8 53.9 7
2022-01-26 35.5 24 29.8 95 33 5 21.1 52.3 0
2022-01-25 34 24 29 96 31.5 3 18.9 30.7 0
2022-01-24 34.5 24 29.3 96 31.5 3.2 24.6 49.8 0.2
2022-01-23 33.5 24.5 29 90 30 5 25.1 63.9 0
2022-01-22 35.5 23 29.3 96 31.5 5 22 58.9 0
2022-01-21 31.5 23 27.3 96 28 3 11.1 0.8 1
2022-01-20 34 23.5 28.8 96 30.5 4 23.6 43.2 0
2022-01-19 33 24 28.5 96 29.5 4 16.3 30.7 0
2022-01-18 35 24 29.5 95 31 4 24.9 49 0
2022-01-17 31.5 22.5 27 95 29.5 4 23.9 29.9 0
2022-01-16 34 23.5 28.8 93 30.5 5 27.9 31.5 0
2022-01-15 33 23.5 28.3 90 29.5 4 19.5 10 0
2022-01-14 35.2 24 29.6 94 32 4.2 25.1 53.2 2.2
2022-01-13 34 23.5 28.8 96 32 3 19.7 55.7 1
2022-01-12 35 23 29 94 31 3.6 20.4 39.1 0.6
2022-01-11 35 24 29.5 96 31.5 3 23.7 69.1 0
2022-01-10 35.5 23 29.3 96 32 5 23.2 64.9 0
2022-01-09 33.5 23.5 28.5 94 31.5 5 19.8 63.2 0
2022-01-08 33.5 22.5 28 93 30.5 3 20.8 46.6 0
2022-01-07 32.5 22.5 27.5 96 30 3 15.3 19.1 0
2022-01-06 31 23.5 27.3 95 28.5 2 9.7 4.2 1
2022-01-05 33 24 28.5 94 31 4 17.6 38.3 1
2022-01-04 32 24 28 93 30.5 3 19.7 31.6 0
2022-01-03 29.5 24 26.8 93 28 1.5 15.7 1.7 0
2022-01-02 32 24 28 94 29.5 3.4 11.8 23.3 12.4
2022-01-01 32.5 23.5 28 96 29.5 3 12.1 25 0